sensor_id;sensor_type;location;lat;lon;timestamp;temperature;humidity
70068;DHT22;57425;51.616;6.680;2024-01-10T00:02:01;-1.00;75.90
70068;DHT22;57425;51.616;6.680;2024-01-10T00:04:27;-1.00;76.00
70068;DHT22;57425;51.616;6.680;2024-01-10T00:06:52;-1.00;76.50
70068;DHT22;57425;51.616;6.680;2024-01-10T00:09:18;-1.00;75.90
70068;DHT22;57425;51.616;6.680;2024-01-10T00:11:44;-1.00;75.90
70068;DHT22;57425;51.616;6.680;2024-01-10T00:14:09;-1.00;75.80
70068;DHT22;57425;51.616;6.680;2024-01-10T00:16:36;-1.00;75.80
70068;DHT22;57425;51.616;6.680;2024-01-10T00:19:01;-1.00;75.80
70068;DHT22;57425;51.616;6.680;2024-01-10T00:21:27;-1.00;75.80
70068;DHT22;57425;51.616;6.680;2024-01-10T00:23:53;-1.10;75.70
70068;DHT22;57425;51.616;6.680;2024-01-10T00:26:18;-1.10;75.60
70068;DHT22;57425;51.616;6.680;2024-01-10T00:28:44;-1.10;75.60
70068;DHT22;57425;51.616;6.680;2024-01-10T00:31:14;-1.10;75.60
70068;DHT22;57425;51.616;6.680;2024-01-10T00:33:40;-1.10;75.70
70068;DHT22;57425;51.616;6.680;2024-01-10T00:36:06;-1.20;75.70
70068;DHT22;57425;51.616;6.680;2024-01-10T00:38:32;-1.10;75.80
70068;DHT22;57425;51.616;6.680;2024-01-10T00:40:58;-1.20;75.70
70068;DHT22;57425;51.616;6.680;2024-01-10T00:43:24;-1.20;75.70
70068;DHT22;57425;51.616;6.680;2024-01-10T00:45:50;-1.20;75.60
70068;DHT22;57425;51.616;6.680;2024-01-10T00:48:15;-1.20;75.60
70068;DHT22;57425;51.616;6.680;2024-01-10T00:50:43;-1.20;75.50
70068;DHT22;57425;51.616;6.680;2024-01-10T00:53:10;-1.20;75.50
70068;DHT22;57425;51.616;6.680;2024-01-10T00:55:35;-1.20;75.50
70068;DHT22;57425;51.616;6.680;2024-01-10T00:58:01;-1.20;75.50
70068;DHT22;57425;51.616;6.680;2024-01-10T01:00:26;-1.20;75.40
70068;DHT22;57425;51.616;6.680;2024-01-10T01:02:53;-1.20;75.40
70068;DHT22;57425;51.616;6.680;2024-01-10T01:05:19;-1.20;75.30
70068;DHT22;57425;51.616;6.680;2024-01-10T01:07:44;-1.20;75.20
70068;DHT22;57425;51.616;6.680;2024-01-10T01:10:10;-1.20;75.20
70068;DHT22;57425;51.616;6.680;2024-01-10T01:12:36;-1.20;75.20
70068;DHT22;57425;51.616;6.680;2024-01-10T01:15:02;-1.20;75.10
70068;DHT22;57425;51.616;6.680;2024-01-10T01:17:27;-1.20;75.10
70068;DHT22;57425;51.616;6.680;2024-01-10T01:19:53;-1.20;75.10
70068;DHT22;57425;51.616;6.680;2024-01-10T01:22:19;-1.20;75.20
70068;DHT22;57425;51.616;6.680;2024-01-10T01:24:46;-1.20;75.10
70068;DHT22;57425;51.616;6.680;2024-01-10T01:27:12;-1.20;75.10
70068;DHT22;57425;51.616;6.680;2024-01-10T01:29:37;-1.30;75.10
70068;DHT22;57425;51.616;6.680;2024-01-10T01:32:03;-1.30;75.10
70068;DHT22;57425;51.616;6.680;2024-01-10T01:34:29;-1.30;75.10
70068;DHT22;57425;51.616;6.680;2024-01-10T01:36:54;-1.30;75.10
70068;DHT22;57425;51.616;6.680;2024-01-10T01:39:20;-1.30;75.00
70068;DHT22;57425;51.616;6.680;2024-01-10T01:41:45;-1.30;75.10
70068;DHT22;57425;51.616;6.680;2024-01-10T01:44:12;-1.40;75.00
70068;DHT22;57425;51.616;6.680;2024-01-10T01:46:38;-1.30;75.00
70068;DHT22;57425;51.616;6.680;2024-01-10T01:49:06;-1.30;75.10
70068;DHT22;57425;51.616;6.680;2024-01-10T01:51:34;-1.30;75.10
70068;DHT22;57425;51.616;6.680;2024-01-10T01:54:06;-1.30;75.10
70068;DHT22;57425;51.616;6.680;2024-01-10T01:56:34;-1.30;75.10
70068;DHT22;57425;51.616;6.680;2024-01-10T01:59:00;-1.40;75.00
70068;DHT22;57425;51.616;6.680;2024-01-10T02:01:27;-1.40;75.50
70068;DHT22;57425;51.616;6.680;2024-01-10T02:03:53;-1.40;74.90
70068;DHT22;57425;51.616;6.680;2024-01-10T02:06:20;-1.40;74.90
70068;DHT22;57425;51.616;6.680;2024-01-10T02:08:45;-1.40;74.80
70068;DHT22;57425;51.616;6.680;2024-01-10T02:11:11;-1.40;74.80
70068;DHT22;57425;51.616;6.680;2024-01-10T02:13:37;-1.40;75.40
70068;DHT22;57425;51.616;6.680;2024-01-10T02:16:04;-1.40;74.90
70068;DHT22;57425;51.616;6.680;2024-01-10T02:18:30;-1.40;74.90
70068;DHT22;57425;51.616;6.680;2024-01-10T02:20:56;-1.40;74.70
70068;DHT22;57425;51.616;6.680;2024-01-10T02:23:23;-1.40;74.80
70068;DHT22;57425;51.616;6.680;2024-01-10T02:25:49;-1.40;74.70
70068;DHT22;57425;51.616;6.680;2024-01-10T02:28:15;-1.40;74.70
70068;DHT22;57425;51.616;6.680;2024-01-10T02:30:40;-1.40;74.60
70068;DHT22;57425;51.616;6.680;2024-01-10T02:33:06;-1.40;74.60
70068;DHT22;57425;51.616;6.680;2024-01-10T02:35:31;-1.40;74.60
70068;DHT22;57425;51.616;6.680;2024-01-10T02:37:58;-1.40;74.60
70068;DHT22;57425;51.616;6.680;2024-01-10T02:40:24;-1.40;74.60
70068;DHT22;57425;51.616;6.680;2024-01-10T02:42:50;-1.40;74.70
70068;DHT22;57425;51.616;6.680;2024-01-10T02:45:17;-1.40;74.60
70068;DHT22;57425;51.616;6.680;2024-01-10T02:47:42;-1.40;74.60
70068;DHT22;57425;51.616;6.680;2024-01-10T02:50:08;-1.50;74.60
70068;DHT22;57425;51.616;6.680;2024-01-10T02:52:34;-1.40;74.60
70068;DHT22;57425;51.616;6.680;2024-01-10T02:55:00;-1.50;74.60
70068;DHT22;57425;51.616;6.680;2024-01-10T02:57:25;-1.50;74.50
70068;DHT22;57425;51.616;6.680;2024-01-10T02:59:52;-1.50;74.60
70068;DHT22;57425;51.616;6.680;2024-01-10T03:02:18;-1.50;74.60
70068;DHT22;57425;51.616;6.680;2024-01-10T03:04:43;-1.50;74.60
70068;DHT22;57425;51.616;6.680;2024-01-10T03:07:10;-1.50;74.50
70068;DHT22;57425;51.616;6.680;2024-01-10T03:09:36;-1.50;74.50
70068;DHT22;57425;51.616;6.680;2024-01-10T03:12:02;-1.50;74.50
70068;DHT22;57425;51.616;6.680;2024-01-10T03:14:27;-1.50;74.50
70068;DHT22;57425;51.616;6.680;2024-01-10T03:16:53;-1.50;74.50
70068;DHT22;57425;51.616;6.680;2024-01-10T03:19:19;-1.50;74.50
70068;DHT22;57425;51.616;6.680;2024-01-10T03:21:44;-1.50;74.50
70068;DHT22;57425;51.616;6.680;2024-01-10T03:24:10;-1.50;74.50
70068;DHT22;57425;51.616;6.680;2024-01-10T03:26:36;-1.50;74.50
70068;DHT22;57425;51.616;6.680;2024-01-10T03:29:01;-1.50;74.50
70068;DHT22;57425;51.616;6.680;2024-01-10T03:31:29;-1.50;74.50
70068;DHT22;57425;51.616;6.680;2024-01-10T03:33:58;-1.50;74.60
70068;DHT22;57425;51.616;6.680;2024-01-10T03:36:24;-1.60;74.50
70068;DHT22;57425;51.616;6.680;2024-01-10T03:38:50;-1.60;74.60
70068;DHT22;57425;51.616;6.680;2024-01-10T03:41:16;-1.60;74.60
70068;DHT22;57425;51.616;6.680;2024-01-10T03:43:43;-1.60;74.70
70068;DHT22;57425;51.616;6.680;2024-01-10T03:46:09;-1.50;74.70
70068;DHT22;57425;51.616;6.680;2024-01-10T03:48:35;-1.60;74.60
70068;DHT22;57425;51.616;6.680;2024-01-10T03:51:01;-1.60;74.50
70068;DHT22;57425;51.616;6.680;2024-01-10T03:53:27;-1.60;74.60
70068;DHT22;57425;51.616;6.680;2024-01-10T03:55:52;-1.60;74.60
70068;DHT22;57425;51.616;6.680;2024-01-10T03:58:18;-1.70;74.60
70068;DHT22;57425;51.616;6.680;2024-01-10T04:00:44;-1.60;74.60
70068;DHT22;57425;51.616;6.680;2024-01-10T04:03:10;-1.60;74.60
70068;DHT22;57425;51.616;6.680;2024-01-10T04:05:36;-1.60;74.50
70068;DHT22;57425;51.616;6.680;2024-01-10T04:08:01;-1.70;74.40
70068;DHT22;57425;51.616;6.680;2024-01-10T04:10:28;-1.70;74.40
70068;DHT22;57425;51.616;6.680;2024-01-10T04:12:54;-1.70;74.30
70068;DHT22;57425;51.616;6.680;2024-01-10T04:15:20;-1.70;74.30
70068;DHT22;57425;51.616;6.680;2024-01-10T04:17:45;-1.70;74.30
70068;DHT22;57425;51.616;6.680;2024-01-10T04:20:11;-1.70;74.20
70068;DHT22;57425;51.616;6.680;2024-01-10T04:22:36;-1.70;74.20
70068;DHT22;57425;51.616;6.680;2024-01-10T04:25:05;-1.70;74.20
70068;DHT22;57425;51.616;6.680;2024-01-10T04:27:31;-1.60;74.20
70068;DHT22;57425;51.616;6.680;2024-01-10T04:29:57;-1.70;74.10
70068;DHT22;57425;51.616;6.680;2024-01-10T04:32:23;-1.70;74.20
70068;DHT22;57425;51.616;6.680;2024-01-10T04:34:48;-1.70;74.20
70068;DHT22;57425;51.616;6.680;2024-01-10T04:37:14;-1.70;74.10
70068;DHT22;57425;51.616;6.680;2024-01-10T04:39:40;-1.70;74.10
70068;DHT22;57425;51.616;6.680;2024-01-10T04:42:10;-1.70;74.10
70068;DHT22;57425;51.616;6.680;2024-01-10T04:44:36;-1.80;74.70
70068;DHT22;57425;51.616;6.680;2024-01-10T04:47:02;-1.80;74.10
70068;DHT22;57425;51.616;6.680;2024-01-10T04:49:29;-1.80;74.20
70068;DHT22;57425;51.616;6.680;2024-01-10T04:51:55;-1.80;74.10
70068;DHT22;57425;51.616;6.680;2024-01-10T04:54:21;-1.80;74.00
70068;DHT22;57425;51.616;6.680;2024-01-10T04:56:47;-1.70;74.10
70068;DHT22;57425;51.616;6.680;2024-01-10T04:59:12;-1.80;74.00
70068;DHT22;57425;51.616;6.680;2024-01-10T05:01:38;-1.80;74.00
70068;DHT22;57425;51.616;6.680;2024-01-10T05:04:04;-1.80;74.00
70068;DHT22;57425;51.616;6.680;2024-01-10T05:06:30;-1.80;74.00
70068;DHT22;57425;51.616;6.680;2024-01-10T05:08:56;-1.80;74.00
70068;DHT22;57425;51.616;6.680;2024-01-10T05:11:24;-1.80;74.00
70068;DHT22;57425;51.616;6.680;2024-01-10T05:13:51;-1.80;74.00
70068;DHT22;57425;51.616;6.680;2024-01-10T05:16:17;-1.80;74.00
70068;DHT22;57425;51.616;6.680;2024-01-10T05:18:43;-1.80;74.00
70068;DHT22;57425;51.616;6.680;2024-01-10T05:21:09;-1.80;74.10
70068;DHT22;57425;51.616;6.680;2024-01-10T05:23:34;-1.80;74.10
70068;DHT22;57425;51.616;6.680;2024-01-10T05:26:01;-1.80;74.00
70068;DHT22;57425;51.616;6.680;2024-01-10T05:28:26;-1.90;74.00
70068;DHT22;57425;51.616;6.680;2024-01-10T05:30:52;-1.90;74.00
70068;DHT22;57425;51.616;6.680;2024-01-10T05:33:19;-1.90;74.00
70068;DHT22;57425;51.616;6.680;2024-01-10T05:35:45;-1.90;74.00
70068;DHT22;57425;51.616;6.680;2024-01-10T05:38:11;-1.90;74.00
70068;DHT22;57425;51.616;6.680;2024-01-10T05:40:36;-1.90;74.00
70068;DHT22;57425;51.616;6.680;2024-01-10T05:43:02;-1.90;74.00
70068;DHT22;57425;51.616;6.680;2024-01-10T05:45:28;-1.90;74.10
70068;DHT22;57425;51.616;6.680;2024-01-10T05:47:54;-1.90;74.10
70068;DHT22;57425;51.616;6.680;2024-01-10T05:50:20;-2.00;74.00
70068;DHT22;57425;51.616;6.680;2024-01-10T05:52:46;-1.90;74.00
70068;DHT22;57425;51.616;6.680;2024-01-10T05:55:12;-2.00;74.00
70068;DHT22;57425;51.616;6.680;2024-01-10T05:57:38;-2.00;74.00
70068;DHT22;57425;51.616;6.680;2024-01-10T06:00:05;-2.00;74.00
70068;DHT22;57425;51.616;6.680;2024-01-10T06:02:38;-2.00;73.90
70068;DHT22;57425;51.616;6.680;2024-01-10T06:05:13;-1.90;73.90
70068;DHT22;57425;51.616;6.680;2024-01-10T06:07:40;-2.00;73.70
70068;DHT22;57425;51.616;6.680;2024-01-10T06:10:09;-2.00;73.70
70068;DHT22;57425;51.616;6.680;2024-01-10T06:12:35;-2.00;73.70
70068;DHT22;57425;51.616;6.680;2024-01-10T06:15:01;-2.00;73.70
70068;DHT22;57425;51.616;6.680;2024-01-10T06:17:26;-2.00;73.70
70068;DHT22;57425;51.616;6.680;2024-01-10T06:19:52;-2.00;73.60
70068;DHT22;57425;51.616;6.680;2024-01-10T06:22:18;-2.00;73.60
70068;DHT22;57425;51.616;6.680;2024-01-10T06:24:44;-2.00;73.60
70068;DHT22;57425;51.616;6.680;2024-01-10T06:27:10;-2.00;73.60
70068;DHT22;57425;51.616;6.680;2024-01-10T06:29:36;-2.00;73.50
70068;DHT22;57425;51.616;6.680;2024-01-10T06:32:03;-2.00;73.60
70068;DHT22;57425;51.616;6.680;2024-01-10T06:34:30;-2.10;73.60
70068;DHT22;57425;51.616;6.680;2024-01-10T06:36:56;-2.10;73.60
70068;DHT22;57425;51.616;6.680;2024-01-10T06:39:22;-2.10;73.60
70068;DHT22;57425;51.616;6.680;2024-01-10T06:41:48;-2.10;74.00
70068;DHT22;57425;51.616;6.680;2024-01-10T06:44:14;-2.10;73.40
70068;DHT22;57425;51.616;6.680;2024-01-10T06:46:39;-2.10;73.40
70068;DHT22;57425;51.616;6.680;2024-01-10T06:49:05;-2.00;73.40
70068;DHT22;57425;51.616;6.680;2024-01-10T06:51:32;-2.00;73.40
70068;DHT22;57425;51.616;6.680;2024-01-10T06:53:58;-2.00;73.40
70068;DHT22;57425;51.616;6.680;2024-01-10T06:56:30;-2.10;73.30
70068;DHT22;57425;51.616;6.680;2024-01-10T06:58:56;-2.10;73.30
70068;DHT22;57425;51.616;6.680;2024-01-10T07:01:22;-2.00;73.40
70068;DHT22;57425;51.616;6.680;2024-01-10T07:03:48;-2.10;73.40
70068;DHT22;57425;51.616;6.680;2024-01-10T07:06:14;-2.10;73.40
70068;DHT22;57425;51.616;6.680;2024-01-10T07:08:42;-2.00;73.40
70068;DHT22;57425;51.616;6.680;2024-01-10T07:11:10;-2.10;73.40
70068;DHT22;57425;51.616;6.680;2024-01-10T07:13:37;-2.10;73.30
70068;DHT22;57425;51.616;6.680;2024-01-10T07:16:02;-2.10;73.30
70068;DHT22;57425;51.616;6.680;2024-01-10T07:18:29;-2.10;73.30
70068;DHT22;57425;51.616;6.680;2024-01-10T07:20:54;-2.10;73.30
70068;DHT22;57425;51.616;6.680;2024-01-10T07:23:20;-2.10;73.30
70068;DHT22;57425;51.616;6.680;2024-01-10T07:25:46;-2.10;73.30
70068;DHT22;57425;51.616;6.680;2024-01-10T07:28:11;-2.10;73.40
70068;DHT22;57425;51.616;6.680;2024-01-10T07:30:37;-2.10;73.40
70068;DHT22;57425;51.616;6.680;2024-01-10T07:33:03;-2.10;73.40
70068;DHT22;57425;51.616;6.680;2024-01-10T07:35:28;-2.10;73.30
70068;DHT22;57425;51.616;6.680;2024-01-10T07:37:55;-2.10;73.30
70068;DHT22;57425;51.616;6.680;2024-01-10T07:40:21;-2.10;73.30
70068;DHT22;57425;51.616;6.680;2024-01-10T07:42:47;-2.20;73.40
70068;DHT22;57425;51.616;6.680;2024-01-10T07:45:13;-2.20;73.40
70068;DHT22;57425;51.616;6.680;2024-01-10T07:47:39;-2.20;73.90
70068;DHT22;57425;51.616;6.680;2024-01-10T07:50:09;-2.10;73.30
70068;DHT22;57425;51.616;6.680;2024-01-10T07:52:36;-2.10;73.90
70068;DHT22;57425;51.616;6.680;2024-01-10T07:55:02;-2.10;73.30
70068;DHT22;57425;51.616;6.680;2024-01-10T07:57:30;-2.20;73.20
70068;DHT22;57425;51.616;6.680;2024-01-10T07:59:56;-2.20;73.30
70068;DHT22;57425;51.616;6.680;2024-01-10T08:02:22;-2.20;73.20
70068;DHT22;57425;51.616;6.680;2024-01-10T08:04:48;-2.10;73.30
70068;DHT22;57425;51.616;6.680;2024-01-10T08:07:14;-2.20;73.20
70068;DHT22;57425;51.616;6.680;2024-01-10T08:09:39;-2.20;73.20
70068;DHT22;57425;51.616;6.680;2024-01-10T08:12:05;-2.20;73.30
70068;DHT22;57425;51.616;6.680;2024-01-10T08:14:31;-2.20;73.30
70068;DHT22;57425;51.616;6.680;2024-01-10T08:16:57;-2.20;73.30
70068;DHT22;57425;51.616;6.680;2024-01-10T08:19:29;-2.20;73.20
70068;DHT22;57425;51.616;6.680;2024-01-10T08:21:55;-2.20;73.70
70068;DHT22;57425;51.616;6.680;2024-01-10T08:24:21;-2.20;73.30
70068;DHT22;57425;51.616;6.680;2024-01-10T08:26:47;-2.20;73.20
70068;DHT22;57425;51.616;6.680;2024-01-10T08:29:18;-2.20;73.20
70068;DHT22;57425;51.616;6.680;2024-01-10T08:31:45;-2.20;73.20
70068;DHT22;57425;51.616;6.680;2024-01-10T08:34:11;-2.20;73.20
70068;DHT22;57425;51.616;6.680;2024-01-10T08:36:37;-2.20;73.20
70068;DHT22;57425;51.616;6.680;2024-01-10T08:39:03;-2.20;73.20
70068;DHT22;57425;51.616;6.680;2024-01-10T08:41:29;-2.20;73.20
70068;DHT22;57425;51.616;6.680;2024-01-10T08:43:55;-2.20;73.10
70068;DHT22;57425;51.616;6.680;2024-01-10T08:46:21;-2.20;73.10
70068;DHT22;57425;51.616;6.680;2024-01-10T08:48:47;-2.20;73.10
70068;DHT22;57425;51.616;6.680;2024-01-10T08:51:13;-2.20;73.20
70068;DHT22;57425;51.616;6.680;2024-01-10T08:53:44;-2.20;73.20
70068;DHT22;57425;51.616;6.680;2024-01-10T08:56:10;-2.20;73.20
70068;DHT22;57425;51.616;6.680;2024-01-10T08:58:36;-2.20;73.10
70068;DHT22;57425;51.616;6.680;2024-01-10T09:01:03;-2.20;73.10
70068;DHT22;57425;51.616;6.680;2024-01-10T09:03:30;-2.20;73.10
70068;DHT22;57425;51.616;6.680;2024-01-10T09:05:55;-2.20;73.00
70068;DHT22;57425;51.616;6.680;2024-01-10T09:08:21;-2.20;73.00
70068;DHT22;57425;51.616;6.680;2024-01-10T09:10:47;-2.20;73.10
70068;DHT22;57425;51.616;6.680;2024-01-10T09:13:14;-2.30;73.00
70068;DHT22;57425;51.616;6.680;2024-01-10T09:15:40;-2.20;73.10
70068;DHT22;57425;51.616;6.680;2024-01-10T09:18:06;-2.20;73.10
70068;DHT22;57425;51.616;6.680;2024-01-10T09:20:31;-2.20;73.00
70068;DHT22;57425;51.616;6.680;2024-01-10T09:22:57;-2.20;73.00
70068;DHT22;57425;51.616;6.680;2024-01-10T09:25:25;-2.20;73.00
70068;DHT22;57425;51.616;6.680;2024-01-10T09:27:51;-2.20;73.00
70068;DHT22;57425;51.616;6.680;2024-01-10T09:30:16;-2.20;73.00
70068;DHT22;57425;51.616;6.680;2024-01-10T09:32:43;-2.20;73.00
70068;DHT22;57425;51.616;6.680;2024-01-10T09:35:10;-2.20;73.00
70068;DHT22;57425;51.616;6.680;2024-01-10T09:37:35;-2.20;73.00
70068;DHT22;57425;51.616;6.680;2024-01-10T09:40:01;-2.20;73.00
70068;DHT22;57425;51.616;6.680;2024-01-10T09:42:27;-2.20;73.00
70068;DHT22;57425;51.616;6.680;2024-01-10T09:44:53;-2.20;73.00
70068;DHT22;57425;51.616;6.680;2024-01-10T09:47:20;-2.20;73.00
70068;DHT22;57425;51.616;6.680;2024-01-10T09:49:46;-2.20;73.00
70068;DHT22;57425;51.616;6.680;2024-01-10T09:52:19;-2.10;73.00
70068;DHT22;57425;51.616;6.680;2024-01-10T09:54:53;-2.10;73.00
70068;DHT22;57425;51.616;6.680;2024-01-10T09:57:19;-2.10;73.00
70068;DHT22;57425;51.616;6.680;2024-01-10T09:59:47;-2.10;73.00
70068;DHT22;57425;51.616;6.680;2024-01-10T10:02:13;-2.10;73.00
70068;DHT22;57425;51.616;6.680;2024-01-10T10:04:48;-2.10;73.00
70068;DHT22;57425;51.616;6.680;2024-01-10T10:07:17;-2.10;73.00
70068;DHT22;57425;51.616;6.680;2024-01-10T10:09:42;-2.10;73.00
70068;DHT22;57425;51.616;6.680;2024-01-10T10:12:08;-2.10;73.00
70068;DHT22;57425;51.616;6.680;2024-01-10T10:14:34;-2.10;73.00
70068;DHT22;57425;51.616;6.680;2024-01-10T10:17:15;-2.10;72.90
70068;DHT22;57425;51.616;6.680;2024-01-10T10:19:42;-2.00;72.90
70068;DHT22;57425;51.616;6.680;2024-01-10T10:22:08;-2.00;72.90
70068;DHT22;57425;51.616;6.680;2024-01-10T10:24:38;-2.00;72.90
70068;DHT22;57425;51.616;6.680;2024-01-10T10:27:12;-2.00;73.00
70068;DHT22;57425;51.616;6.680;2024-01-10T10:29:38;-2.00;73.00
70068;DHT22;57425;51.616;6.680;2024-01-10T10:32:05;-2.00;73.00
70068;DHT22;57425;51.616;6.680;2024-01-10T10:34:31;-2.00;72.90
70068;DHT22;57425;51.616;6.680;2024-01-10T10:37:01;-2.00;72.90
70068;DHT22;57425;51.616;6.680;2024-01-10T10:39:26;-2.00;73.00
70068;DHT22;57425;51.616;6.680;2024-01-10T10:41:52;-2.00;73.00
70068;DHT22;57425;51.616;6.680;2024-01-10T10:44:23;-2.00;73.60
70068;DHT22;57425;51.616;6.680;2024-01-10T10:46:51;-2.00;73.00
70068;DHT22;57425;51.616;6.680;2024-01-10T10:49:18;-1.90;73.10
70068;DHT22;57425;51.616;6.680;2024-01-10T10:51:50;-1.90;73.10
70068;DHT22;57425;51.616;6.680;2024-01-10T10:54:16;-1.90;73.10
70068;DHT22;57425;51.616;6.680;2024-01-10T10:56:43;-1.90;73.10
70068;DHT22;57425;51.616;6.680;2024-01-10T10:59:10;-1.90;73.10
70068;DHT22;57425;51.616;6.680;2024-01-10T11:01:39;-1.90;73.20
70068;DHT22;57425;51.616;6.680;2024-01-10T11:04:05;-1.80;73.20
70068;DHT22;57425;51.616;6.680;2024-01-10T11:06:31;-1.80;73.20
70068;DHT22;57425;51.616;6.680;2024-01-10T11:09:02;-1.80;73.80
70068;DHT22;57425;51.616;6.680;2024-01-10T11:11:49;-1.80;73.20
70068;DHT22;57425;51.616;6.680;2024-01-10T11:15:24;-1.80;73.20
70068;DHT22;57425;51.616;6.680;2024-01-10T11:23:33;-1.80;73.30
70068;DHT22;57425;51.616;6.680;2024-01-10T11:26:03;-1.70;73.30
70068;DHT22;57425;51.616;6.680;2024-01-10T11:28:32;-1.70;73.40
70068;DHT22;57425;51.616;6.680;2024-01-10T11:30:58;-1.70;73.40
70068;DHT22;57425;51.616;6.680;2024-01-10T11:33:34;-1.70;73.40
70068;DHT22;57425;51.616;6.680;2024-01-10T11:36:19;-1.60;73.50
70068;DHT22;57425;51.616;6.680;2024-01-10T11:38:54;-1.60;73.50
70068;DHT22;57425;51.616;6.680;2024-01-10T11:41:31;-1.60;73.50
70068;DHT22;57425;51.616;6.680;2024-01-10T11:46:47;-1.60;73.60
70068;DHT22;57425;51.616;6.680;2024-01-10T11:49:17;-1.60;73.60
70068;DHT22;57425;51.616;6.680;2024-01-10T11:51:57;-1.60;73.60
70068;DHT22;57425;51.616;6.680;2024-01-10T11:54:42;-1.60;73.70
70068;DHT22;57425;51.616;6.680;2024-01-10T11:57:10;-1.50;73.80
70068;DHT22;57425;51.616;6.680;2024-01-10T11:59:36;-1.50;73.80
70068;DHT22;57425;51.616;6.680;2024-01-10T12:02:03;-1.60;73.70
70068;DHT22;57425;51.616;6.680;2024-01-10T12:04:31;-1.50;73.80
70068;DHT22;57425;51.616;6.680;2024-01-10T12:06:57;-1.50;73.90
70068;DHT22;57425;51.616;6.680;2024-01-10T12:09:23;-1.50;73.90
70068;DHT22;57425;51.616;6.680;2024-01-10T12:11:50;-1.50;73.90
70068;DHT22;57425;51.616;6.680;2024-01-10T12:14:16;-1.50;73.90
70068;DHT22;57425;51.616;6.680;2024-01-10T12:16:42;-1.50;74.00
70068;DHT22;57425;51.616;6.680;2024-01-10T12:19:09;-1.40;74.00
70068;DHT22;57425;51.616;6.680;2024-01-10T12:21:35;-1.40;74.60
70068;DHT22;57425;51.616;6.680;2024-01-10T12:24:03;-1.40;74.00
70068;DHT22;57425;51.616;6.680;2024-01-10T12:26:31;-1.40;74.10
70068;DHT22;57425;51.616;6.680;2024-01-10T12:28:58;-1.40;74.10
70068;DHT22;57425;51.616;6.680;2024-01-10T12:31:27;-1.30;74.20
70068;DHT22;57425;51.616;6.680;2024-01-10T12:33:55;-1.30;74.20
70068;DHT22;57425;51.616;6.680;2024-01-10T12:36:21;-1.30;74.20
70068;DHT22;57425;51.616;6.680;2024-01-10T12:38:47;-1.30;74.20
70068;DHT22;57425;51.616;6.680;2024-01-10T12:41:15;-1.30;74.20
70068;DHT22;57425;51.616;6.680;2024-01-10T12:43:42;-1.20;74.30
70068;DHT22;57425;51.616;6.680;2024-01-10T12:46:12;-1.30;74.30
70068;DHT22;57425;51.616;6.680;2024-01-10T12:48:41;-1.20;74.40
70068;DHT22;57425;51.616;6.680;2024-01-10T12:51:09;-1.20;74.40
70068;DHT22;57425;51.616;6.680;2024-01-10T12:53:40;-1.20;74.40
70068;DHT22;57425;51.616;6.680;2024-01-10T12:56:07;-1.10;74.50
70068;DHT22;57425;51.616;6.680;2024-01-10T12:58:35;-1.10;75.00
70068;DHT22;57425;51.616;6.680;2024-01-10T13:01:02;-1.10;74.50
70068;DHT22;57425;51.616;6.680;2024-01-10T13:03:29;-1.10;74.60
70068;DHT22;57425;51.616;6.680;2024-01-10T13:05:55;-1.10;74.50
70068;DHT22;57425;51.616;6.680;2024-01-10T13:08:21;-1.10;74.60
70068;DHT22;57425;51.616;6.680;2024-01-10T13:10:47;-1.10;74.60
70068;DHT22;57425;51.616;6.680;2024-01-10T13:13:14;-1.00;74.70
70068;DHT22;57425;51.616;6.680;2024-01-10T13:15:40;-1.00;75.40
70068;DHT22;57425;51.616;6.680;2024-01-10T13:18:06;-0.90;76.40
70068;DHT22;57425;51.616;6.680;2024-01-10T13:20:33;-1.00;76.00
70068;DHT22;57425;51.616;6.680;2024-01-10T13:22:59;-0.90;76.80
70068;DHT22;57425;51.616;6.680;2024-01-10T13:25:24;-0.90;76.60
70068;DHT22;57425;51.616;6.680;2024-01-10T13:27:50;-0.90;75.80
70068;DHT22;57425;51.616;6.680;2024-01-10T13:30:16;-0.90;76.80
70068;DHT22;57425;51.616;6.680;2024-01-10T13:32:43;-0.80;76.80
70068;DHT22;57425;51.616;6.680;2024-01-10T13:35:09;-0.90;77.50
70068;DHT22;57425;51.616;6.680;2024-01-10T13:37:36;-0.80;77.50
70068;DHT22;57425;51.616;6.680;2024-01-10T13:40:02;-0.90;77.80
70068;DHT22;57425;51.616;6.680;2024-01-10T13:42:31;-0.70;78.60
70068;DHT22;57425;51.616;6.680;2024-01-10T13:44:58;-0.60;79.80
70068;DHT22;57425;51.616;6.680;2024-01-10T13:47:23;-0.70;82.30
70068;DHT22;57425;51.616;6.680;2024-01-10T13:49:49;-0.50;82.90
70068;DHT22;57425;51.616;6.680;2024-01-10T13:52:15;-0.60;86.10
70068;DHT22;57425;51.616;6.680;2024-01-10T13:54:40;-0.60;84.50
70068;DHT22;57425;51.616;6.680;2024-01-10T13:57:07;-0.50;83.40
70068;DHT22;57425;51.616;6.680;2024-01-10T13:59:33;-0.50;82.50
70068;DHT22;57425;51.616;6.680;2024-01-10T14:01:59;-0.50;78.00
70068;DHT22;57425;51.616;6.680;2024-01-10T14:04:25;-0.60;78.20
70068;DHT22;57425;51.616;6.680;2024-01-10T14:06:51;-0.70;77.90
70068;DHT22;57425;51.616;6.680;2024-01-10T14:09:16;-0.70;77.10
70068;DHT22;57425;51.616;6.680;2024-01-10T14:11:43;-0.70;76.50
70068;DHT22;57425;51.616;6.680;2024-01-10T14:14:10;-0.60;76.10
70068;DHT22;57425;51.616;6.680;2024-01-10T14:16:36;-0.60;76.60
70068;DHT22;57425;51.616;6.680;2024-01-10T14:19:02;-0.60;76.70
70068;DHT22;57425;51.616;6.680;2024-01-10T14:21:28;-0.60;77.10
70068;DHT22;57425;51.616;6.680;2024-01-10T14:23:54;-0.60;78.90
70068;DHT22;57425;51.616;6.680;2024-01-10T14:26:20;-0.50;80.40
70068;DHT22;57425;51.616;6.680;2024-01-10T14:28:46;-0.60;80.90
70068;DHT22;57425;51.616;6.680;2024-01-10T14:31:12;-0.50;81.00
70068;DHT22;57425;51.616;6.680;2024-01-10T14:33:39;-0.30;84.80
70068;DHT22;57425;51.616;6.680;2024-01-10T14:36:05;-0.30;87.10
70068;DHT22;57425;51.616;6.680;2024-01-10T14:38:31;-0.50;85.40
70068;DHT22;57425;51.616;6.680;2024-01-10T14:40:57;-0.40;85.10
70068;DHT22;57425;51.616;6.680;2024-01-10T14:43:24;-0.40;84.90
70068;DHT22;57425;51.616;6.680;2024-01-10T14:45:50;-0.30;83.00
70068;DHT22;57425;51.616;6.680;2024-01-10T14:48:15;-0.30;82.40
70068;DHT22;57425;51.616;6.680;2024-01-10T14:50:41;-0.30;81.90
70068;DHT22;57425;51.616;6.680;2024-01-10T14:53:07;-0.30;81.80
70068;DHT22;57425;51.616;6.680;2024-01-10T14:55:33;-0.30;82.40
70068;DHT22;57425;51.616;6.680;2024-01-10T14:57:59;-0.20;81.60
70068;DHT22;57425;51.616;6.680;2024-01-10T15:00:25;-0.40;81.50
70068;DHT22;57425;51.616;6.680;2024-01-10T15:02:50;-0.30;81.90
70068;DHT22;57425;51.616;6.680;2024-01-10T15:05:16;-0.20;83.40
70068;DHT22;57425;51.616;6.680;2024-01-10T15:07:43;-0.30;83.90
70068;DHT22;57425;51.616;6.680;2024-01-10T15:10:09;-0.30;84.20
70068;DHT22;57425;51.616;6.680;2024-01-10T15:12:34;-0.20;84.20
70068;DHT22;57425;51.616;6.680;2024-01-10T15:15:00;-0.30;83.90
70068;DHT22;57425;51.616;6.680;2024-01-10T15:17:27;-0.30;84.20
70068;DHT22;57425;51.616;6.680;2024-01-10T15:19:52;-0.30;84.40
70068;DHT22;57425;51.616;6.680;2024-01-10T15:22:18;-0.20;84.50
70068;DHT22;57425;51.616;6.680;2024-01-10T15:24:44;-0.30;84.90
70068;DHT22;57425;51.616;6.680;2024-01-10T15:27:10;-0.30;85.10
70068;DHT22;57425;51.616;6.680;2024-01-10T15:29:39;-0.20;85.00
70068;DHT22;57425;51.616;6.680;2024-01-10T15:32:05;-0.20;85.10
70068;DHT22;57425;51.616;6.680;2024-01-10T15:34:31;-0.20;83.90
70068;DHT22;57425;51.616;6.680;2024-01-10T15:36:57;-0.10;83.70